Time,TemperatureF,DewpointF,PressureIn,WindDirection,WindDirectionDegrees,WindSpeedMPH,WindSpeedGustMPH,Humidity,HourlyPrecipIn,Conditions,Clouds,dailyrainin,SoftwareType,DateUTC
2013-12-06 00:12:00,62.1,61.5,29.79,WSW,247,2.7,-999.0,98,-99.99,,,0.00,Acu-Link.com,2013-12-06 05:12:00,
2013-12-06 00:27:00,62.1,61.5,29.78,SW,225,6.3,-999.0,98,-99.99,,,0.00,Acu-Link.com,2013-12-06 05:27:00,
2013-12-06 00:42:00,61.9,61.3,29.77,WSW,247,2.7,-999.0,98,-99.99,,,0.01,Acu-Link.com,2013-12-06 05:42:00,
2013-12-06 00:57:00,62.1,61.5,29.77,SW,225,4.7,-999.0,98,-99.99,,,0.02,Acu-Link.com,2013-12-06 05:57:00,
2013-12-06 01:12:00,62.1,61.5,29.78,SSW,202,5.8,-999.0,98,-99.99,,,0.03,Acu-Link.com,2013-12-06 06:12:00,
2013-12-06 01:28:00,62.2,61.6,29.77,SSW,202,5.3,-999.0,98,-99.99,,,0.04,Acu-Link.com,2013-12-06 06:28:00,
2013-12-06 01:43:00,62.4,61.8,29.75,SW,225,7.3,-999.0,98,-99.99,,,0.06,Acu-Link.com,2013-12-06 06:43:00,
2013-12-06 01:58:00,62.4,61.8,29.75,South,180,6.3,-999.0,98,-99.99,,,0.06,Acu-Link.com,2013-12-06 06:58:00,
2013-12-06 02:13:00,62.4,61.8,29.76,WSW,247,5.3,-999.0,98,-99.99,,,0.06,Acu-Link.com,2013-12-06 07:13:00,
2013-12-06 02:29:00,62.6,62.0,29.75,West,270,1.7,-999.0,98,-99.99,,,0.06,Acu-Link.com,2013-12-06 07:29:00,
2013-12-06 02:44:00,62.8,62.2,29.76,SSW,202,6.8,-999.0,98,-99.99,,,0.06,Acu-Link.com,2013-12-06 07:44:00,
2013-12-06 02:59:00,62.6,62.0,29.76,SW,225,2.2,-999.0,98,-99.99,,,0.06,Acu-Link.com,2013-12-06 07:59:00,
2013-12-06 03:14:00,62.8,62.2,29.78,SW,225,6.3,-999.0,98,-99.99,,,0.06,Acu-Link.com,2013-12-06 08:14:00,
2013-12-06 03:29:00,62.8,62.2,29.77,SSW,202,2.7,-999.0,98,-99.99,,,0.06,Acu-Link.com,2013-12-06 08:29:00,
2013-12-06 03:45:00,62.6,62.0,29.77,WSW,247,2.7,-999.0,98,-99.99,,,0.07,Acu-Link.com,2013-12-06 08:45:00,
2013-12-06 04:00:00,62.6,62.0,29.77,West,270,1.7,-999.0,98,-99.99,,,0.07,Acu-Link.com,2013-12-06 09:00:00,
2013-12-06 04:15:00,62.4,61.8,29.77,West,270,1.7,-999.0,98,-99.99,,,0.07,Acu-Link.com,2013-12-06 09:15:00,
2013-12-06 04:30:00,62.4,61.8,29.77,West,270,1.1,-999.0,98,-99.99,,,0.07,Acu-Link.com,2013-12-06 09:30:00,
2013-12-06 04:46:00,62.6,62.0,29.77,NNW,337,2.7,-999.0,98,-99.99,,,0.07,Acu-Link.com,2013-12-06 09:46:00,
2013-12-06 05:01:00,62.1,61.5,29.78,West,270,2.2,-999.0,98,-99.99,,,0.07,Acu-Link.com,2013-12-06 10:01:00,
2013-12-06 05:16:00,59.7,59.1,29.80,North,0,6.8,-999.0,98,-99.99,,,0.07,Acu-Link.com,2013-12-06 10:16:00,
2013-12-06 05:31:00,57.0,56.4,29.81,NNE,22,11.4,-999.0,98,-99.99,,,0.08,Acu-Link.com,2013-12-06 10:31:00,
2013-12-06 05:46:00,55.8,55.2,29.81,NE,45,10.4,-999.0,98,-99.99,,,0.11,Acu-Link.com,2013-12-06 10:46:00,
2013-12-06 06:02:00,54.0,53.4,29.83,NE,45,9.4,-999.0,98,-99.99,,,0.11,Acu-Link.com,2013-12-06 11:02:00,
2013-12-06 06:17:00,52.5,52.0,29.84,NE,45,14.5,-999.0,98,-99.99,,,0.11,Acu-Link.com,2013-12-06 11:17:00,
2013-12-06 06:32:00,51.8,51.3,29.85,NNE,22,13.0,-999.0,98,-99.99,,,0.11,Acu-Link.com,2013-12-06 11:32:00,
2013-12-06 06:47:00,51.3,50.8,29.88,NE,45,7.3,-999.0,98,-99.99,,,0.11,Acu-Link.com,2013-12-06 11:47:00,
2013-12-06 07:02:00,49.8,49.3,29.89,NNE,22,14.5,-999.0,98,-99.99,,,0.14,Acu-Link.com,2013-12-06 12:02:00,
2013-12-06 07:18:00,48.7,48.2,29.89,NE,45,11.9,-999.0,98,-99.99,,,0.17,Acu-Link.com,2013-12-06 12:18:00,
2013-12-06 07:33:00,48.6,48.1,29.89,NE,45,8.9,-999.0,98,-99.99,,,0.19,Acu-Link.com,2013-12-06 12:33:00,
2013-12-06 07:48:00,47.7,47.2,29.90,NNE,22,11.4,-999.0,98,-99.99,,,0.20,Acu-Link.com,2013-12-06 12:48:00,
2013-12-06 08:03:00,47.1,46.6,29.91,NE,45,11.9,-999.0,98,-99.99,,,0.22,Acu-Link.com,2013-12-06 13:03:00,
2013-12-06 08:18:00,46.8,46.3,29.93,NE,45,9.9,-999.0,98,-99.99,,,0.22,Acu-Link.com,2013-12-06 13:18:00,
2013-12-06 08:34:00,46.4,45.9,29.96,NE,45,8.9,-999.0,98,-99.99,,,0.22,Acu-Link.com,2013-12-06 13:34:00,
2013-12-06 08:49:00,45.5,45.0,29.95,NE,45,13.0,-999.0,98,-99.99,,,0.22,Acu-Link.com,2013-12-06 13:49:00,
2013-12-06 09:04:00,45.3,44.8,29.97,NE,45,6.8,-999.0,98,-99.99,,,0.25,Acu-Link.com,2013-12-06 14:04:00,
2013-12-06 09:19:00,45.1,44.6,29.96,North,0,8.3,-999.0,98,-99.99,,,0.25,Acu-Link.com,2013-12-06 14:19:00,
2013-12-06 09:35:00,45.3,44.8,29.97,NE,45,3.7,-999.0,98,-99.99,,,0.26,Acu-Link.com,2013-12-06 14:35:00,
2013-12-06 09:50:00,45.3,44.8,29.95,NE,45,5.3,-999.0,98,-99.99,,,0.27,Acu-Link.com,2013-12-06 14:50:00,
2013-12-06 10:05:00,45.7,45.2,29.97,NNW,337,5.8,-999.0,98,-99.99,,,0.27,Acu-Link.com,2013-12-06 15:05:00,
2013-12-06 10:20:00,45.7,45.2,29.98,NNE,22,4.7,-999.0,98,-99.99,,,0.27,Acu-Link.com,2013-12-06 15:20:00,
2013-12-06 10:35:00,45.9,45.4,30.01,NW,315,7.3,-999.0,98,-99.99,,,0.27,Acu-Link.com,2013-12-06 15:35:00,
2013-12-06 10:51:00,44.8,44.3,29.98,NNE,22,11.9,-999.0,98,-99.99,,,0.27,Acu-Link.com,2013-12-06 15:51:00,
2013-12-06 11:06:00,44.2,43.7,29.98,NNE,22,8.3,-999.0,98,-99.99,,,0.30,Acu-Link.com,2013-12-06 16:06:00,
2013-12-06 11:21:00,43.9,43.4,29.99,NNE,22,5.3,-999.0,98,-99.99,,,0.33,Acu-Link.com,2013-12-06 16:21:00,
2013-12-06 11:36:00,43.7,43.2,29.97,NNE,22,7.3,-999.0,98,-99.99,,,0.36,Acu-Link.com,2013-12-06 16:36:00,
2013-12-06 11:51:00,43.7,43.2,29.96,NE,45,8.3,-999.0,98,-99.99,,,0.37,Acu-Link.com,2013-12-06 16:51:00,
2013-12-06 12:07:00,43.9,43.4,29.95,ENE,67,6.8,-999.0,98,-99.99,,,0.40,Acu-Link.com,2013-12-06 17:07:00,
2013-12-06 12:22:00,43.9,43.4,29.94,NNE,22,9.4,-999.0,98,-99.99,,,0.41,Acu-Link.com,2013-12-06 17:22:00,
2013-12-06 12:37:00,43.7,43.2,29.93,NNE,22,10.9,-999.0,98,-99.99,,,0.41,Acu-Link.com,2013-12-06 17:37:00,
2013-12-06 12:52:00,44.4,43.9,29.93,NE,45,4.7,-999.0,98,-99.99,,,0.42,Acu-Link.com,2013-12-06 17:52:00,
2013-12-06 13:08:00,44.1,43.6,29.94,ENE,67,13.0,-999.0,98,-99.99,,,0.42,Acu-Link.com,2013-12-06 18:08:00,
2013-12-06 13:23:00,44.1,43.6,29.95,NE,45,7.8,-999.0,98,-99.99,,,0.42,Acu-Link.com,2013-12-06 18:23:00,
2013-12-06 13:38:00,43.7,43.2,29.97,North,0,5.8,-999.0,98,-99.99,,,0.42,Acu-Link.com,2013-12-06 18:38:00,
2013-12-06 13:53:00,43.9,43.4,29.97,North,0,6.8,-999.0,98,-99.99,,,0.42,Acu-Link.com,2013-12-06 18:53:00,
2013-12-06 14:08:00,43.5,43.0,29.94,ENE,67,5.3,-999.0,98,-99.99,,,0.44,Acu-Link.com,2013-12-06 19:08:00,
2013-12-06 14:24:00,43.5,43.0,29.92,NE,45,8.3,-999.0,98,-99.99,,,0.46,Acu-Link.com,2013-12-06 19:24:00,
2013-12-06 14:39:00,44.1,43.6,29.93,NE,45,3.2,-999.0,98,-99.99,,,0.47,Acu-Link.com,2013-12-06 19:39:00,
2013-12-06 14:54:00,43.3,42.8,29.94,NNE,22,8.3,-999.0,98,-99.99,,,0.47,Acu-Link.com,2013-12-06 19:54:00,
2013-12-06 15:09:00,43.0,42.5,29.93,NE,45,8.9,-999.0,98,-99.99,,,0.47,Acu-Link.com,2013-12-06 20:09:00,
2013-12-06 15:24:00,42.8,42.3,29.95,NE,45,5.3,-999.0,98,-99.99,,,0.48,Acu-Link.com,2013-12-06 20:24:00,
2013-12-06 15:40:00,42.8,42.3,29.97,NE,45,6.8,-999.0,98,-99.99,,,0.48,Acu-Link.com,2013-12-06 20:40:00,
2013-12-06 15:55:00,42.6,42.1,29.98,North,0,2.2,-999.0,98,-99.99,,,0.49,Acu-Link.com,2013-12-06 20:55:00,
2013-12-06 16:10:00,42.1,41.6,29.96,NE,45,6.3,-999.0,98,-99.99,,,0.49,Acu-Link.com,2013-12-06 21:10:00,
2013-12-06 16:25:00,41.5,41.0,29.95,ENE,67,7.3,-999.0,98,-99.99,,,0.51,Acu-Link.com,2013-12-06 21:25:00,
2013-12-06 16:40:00,41.5,41.0,29.97,NNW,337,6.8,-999.0,98,-99.99,,,0.54,Acu-Link.com,2013-12-06 21:40:00,
2013-12-06 16:55:00,41.2,40.7,29.96,NNE,22,4.7,-999.0,98,-99.99,,,0.63,Acu-Link.com,2013-12-06 21:55:00,
2013-12-06 17:10:00,41.2,40.7,30.00,NW,315,6.3,-999.0,98,-99.99,,,0.67,Acu-Link.com,2013-12-06 22:10:00,
2013-12-06 17:26:00,41.2,40.7,29.99,NNE,22,1.7,-999.0,98,-99.99,,,0.71,Acu-Link.com,2013-12-06 22:26:00,
2013-12-06 17:41:00,41.0,40.5,29.98,NE,45,4.2,-999.0,98,-99.99,,,0.80,Acu-Link.com,2013-12-06 22:41:00,
2013-12-06 17:56:00,40.8,40.3,29.99,NE,45,0.0,-999.0,98,-99.99,,,0.82,Acu-Link.com,2013-12-06 22:56:00,
2013-12-06 18:12:00,40.8,40.3,29.98,NNE,22,5.3,-999.0,98,-99.99,,,0.84,Acu-Link.com,2013-12-06 23:12:00,
2013-12-06 18:27:00,39.4,38.9,29.97,NE,45,10.4,-999.0,98,-99.99,,,0.86,Acu-Link.com,2013-12-06 23:27:00,
2013-12-06 18:42:00,39.2,38.7,29.99,NE,45,8.3,-999.0,98,-99.99,,,0.88,Acu-Link.com,2013-12-06 23:42:00,
2013-12-06 18:57:00,39.0,38.5,30.01,NE,45,11.9,-999.0,98,-99.99,,,0.91,Acu-Link.com,2013-12-06 23:57:00,
2013-12-06 19:12:00,38.7,38.2,30.03,NE,45,7.3,-999.0,98,-99.99,,,0.94,Acu-Link.com,2013-12-07 00:12:00,
2013-12-06 19:27:00,38.3,37.8,29.99,ENE,67,6.8,-999.0,98,-99.99,,,0.98,Acu-Link.com,2013-12-07 00:27:00,
2013-12-06 19:42:00,37.9,37.4,29.96,NE,45,9.9,-999.0,98,-99.99,,,0.99,Acu-Link.com,2013-12-07 00:42:00,
2013-12-06 19:58:00,37.9,37.4,29.99,NNE,22,8.3,-999.0,98,-99.99,,,1.05,Acu-Link.com,2013-12-07 00:58:00,
2013-12-06 20:13:00,37.8,37.3,30.01,NNE,22,5.8,-999.0,98,-99.99,,,1.08,Acu-Link.com,2013-12-07 01:13:00,
2013-12-06 20:28:00,37.4,36.9,30.00,NE,45,10.4,-999.0,98,-99.99,,,1.09,Acu-Link.com,2013-12-07 01:28:00,
2013-12-06 20:43:00,36.9,36.4,29.98,ENE,67,11.9,-999.0,98,-99.99,,,1.14,Acu-Link.com,2013-12-07 01:43:00,
2013-12-06 20:59:00,36.5,36.0,30.01,NE,45,6.8,-999.0,98,-99.99,,,1.18,Acu-Link.com,2013-12-07 01:59:00,
2013-12-06 21:14:00,36.1,35.6,30.02,NNE,22,13.5,-999.0,98,-99.99,,,1.20,Acu-Link.com,2013-12-07 02:14:00,
2013-12-06 21:30:00,35.8,35.3,30.04,NNE,22,8.9,-999.0,98,-99.99,,,1.24,Acu-Link.com,2013-12-07 02:30:00,
2013-12-06 21:45:00,36.0,35.5,30.05,NNE,22,4.7,-999.0,98,-99.99,,,1.29,Acu-Link.com,2013-12-07 02:45:00,
2013-12-06 22:00:00,35.8,35.3,30.04,NE,45,10.9,-999.0,98,-99.99,,,1.31,Acu-Link.com,2013-12-07 03:00:00,
2013-12-06 22:15:00,35.6,35.1,30.07,NE,45,10.4,-999.0,98,-99.99,,,1.38,Acu-Link.com,2013-12-07 03:15:00,
2013-12-06 22:30:00,35.4,34.9,30.03,NE,45,7.3,-999.0,98,-99.99,,,1.42,Acu-Link.com,2013-12-07 03:30:00,
2013-12-06 22:46:00,35.4,34.9,30.04,NNE,22,7.8,-999.0,98,-99.99,,,1.44,Acu-Link.com,2013-12-07 03:46:00,
2013-12-06 23:01:00,35.6,35.1,30.07,North,0,3.7,-999.0,98,-99.99,,,1.45,Acu-Link.com,2013-12-07 04:01:00,
2013-12-06 23:16:00,35.6,35.1,30.05,North,0,7.3,-999.0,98,-99.99,,,1.48,Acu-Link.com,2013-12-07 04:16:00,
2013-12-06 23:31:00,35.4,34.9,30.04,NE,45,9.4,-999.0,98,-99.99,,,1.52,Acu-Link.com,2013-12-07 04:31:00,
2013-12-06 23:46:00,34.9,34.4,30.02,NE,45,10.4,-999.0,98,-99.99,,,1.54,Acu-Link.com,2013-12-07 04:46:00,